Time;durP1;ratioP1;P1;durP2;ratioP2;P2;SDS_P1;SDS_P2;PMS_P1;PMS_P2;Temp;Humidity;BMP_temperature;BMP_pressure;BME280_temperature;BME280_humidity;BME280_pressure;Samples;Min_cycle;Max_cycle;Signal;HPM_P1;HPM_P2
2021/03/08 00:00:01;;;;;;;16.77;11.02;;;;;;;-139.48;100.00;61774.03;5033999;28;20048;-63
2021/03/08 00:02:45;;;;;;;15.98;10.25;;;;;;;-139.48;100.00;61774.03;5018886;28;20052;-64
2021/03/08 00:05:31;;;;;;;17.25;10.82;;;;;;;-139.48;100.00;61774.03;5019254;28;20187;-65
2021/03/08 00:08:15;;;;;;;19.00;10.55;;;;;;;-139.48;100.00;61774.03;5033954;28;20056;-65
2021/03/08 00:10:59;;;;;;;15.80;10.38;;;;;;;-139.48;100.00;61774.03;5018896;28;20048;-64
2021/03/08 00:13:43;;;;;;;18.13;10.65;;;;;;;-139.48;100.00;61774.03;5004937;28;20485;-64
2021/03/08 00:16:27;;;;;;;15.70;10.07;;;;;;;-139.48;100.00;61774.03;5033980;28;20056;-64
2021/03/08 00:19:11;;;;;;;19.90;11.40;;;;;;;-139.48;100.00;61774.03;5018637;28;20126;-64
2021/03/08 00:21:56;;;;;;;21.58;12.50;;;;;;;-139.48;100.00;61774.03;5033922;28;20048;-65
2021/03/08 00:24:40;;;;;;;22.58;12.93;;;;;;;-139.48;100.00;61774.03;5033871;28;20446;-64
2021/03/08 00:27:24;;;;;;;20.15;12.23;;;;;;;-139.48;100.00;61774.03;5018842;28;20509;-64
2021/03/08 00:30:10;;;;;;;20.80;12.75;;;;;;;-139.48;100.00;61774.03;5033744;28;20052;-64
2021/03/08 00:32:55;;;;;;;19.27;12.85;;;;;;;-139.48;100.00;61774.03;5033704;28;20103;-64
2021/03/08 00:35:39;;;;;;;21.25;12.43;;;;;;;-139.48;100.00;61774.03;5018510;28;20183;-64
2021/03/08 00:38:22;;;;;;;23.02;12.77;;;;;;;-139.48;100.00;61774.03;5033329;28;20517;-64
2021/03/08 00:41:06;;;;;;;20.45;12.88;;;;;;;-139.48;100.00;61774.03;5018630;28;20052;-64
2021/03/08 00:43:50;;;;;;;22.10;12.65;;;;;;;-139.48;100.00;61774.03;5004470;28;20592;-64
2021/03/08 00:46:35;;;;;;;20.45;11.73;;;;;;;-139.48;100.00;61774.03;5033540;28;20200;-64
2021/03/08 00:49:19;;;;;;;20.38;13.00;;;;;;;-139.48;100.00;61774.03;5018077;28;20048;-65
2021/03/08 00:52:03;;;;;;;;;;;;;;;-139.48;100.00;61774.03;5033598;28;20048;-64
2021/03/08 00:54:47;;;;;;;17.50;10.57;;;;;;;-139.48;100.00;61774.03;5033426;28;19924;-64
2021/03/08 00:57:31;;;;;;;18.65;10.75;;;;;;;-139.48;100.00;61774.03;5033306;28;20049;-65
2021/03/08 01:00:20;;;;;;;15.77;10.32;;;;;;;-139.48;100.00;61774.03;5017308;28;20442;-65
2021/03/08 01:03:04;;;;;;;19.20;11.52;;;;;;;-139.48;100.00;61774.03;5018327;28;20052;-65
2021/03/08 01:05:49;;;;;;;23.85;12.82;;;;;;;-139.48;100.00;61774.03;5033071;28;20052;-64
2021/03/08 01:08:33;;;;;;;18.45;11.70;;;;;;;-139.48;100.00;61774.03;5033000;28;20564;-62
2021/03/08 01:11:17;;;;;;;21.92;11.57;;;;;;;-139.48;100.00;61774.03;5018315;28;20529;-65
2021/03/08 01:14:01;;;;;;;20.30;11.13;;;;;;;-139.48;100.00;61774.03;5033270;28;20044;-64
2021/03/08 01:16:46;;;;;;;18.60;12.35;;;;;;;-139.48;100.00;61774.03;5033214;28;20091;-64
2021/03/08 01:19:30;;;;;;;22.50;12.25;;;;;;;-139.48;100.00;61774.03;5032869;28;20052;-64
2021/03/08 01:22:14;;;;;;;19.95;11.80;;;;;;;-139.48;100.00;61774.03;5017959;28;20418;-64
2021/03/08 01:24:59;;;;;;;17.70;11.40;;;;;;;-139.48;100.00;61774.03;5018229;28;20048;-63
2021/03/08 01:27:43;;;;;;;16.42;10.77;;;;;;;-139.48;100.00;61774.03;5033034;28;20048;-64
2021/03/08 01:30:34;;;;;;;18.70;11.15;;;;;;;-139.48;100.00;61774.03;5004275;28;20127;-64
2021/03/08 01:33:19;;;;;;;18.38;11.23;;;;;;;-139.48;100.00;61774.03;5032798;28;20128;-64
2021/03/08 01:36:04;;;;;;;16.63;10.90;;;;;;;-139.48;100.00;61774.03;5018001;28;20172;-65
2021/03/08 01:38:48;;;;;;;20.42;12.73;;;;;;;-139.48;100.00;61774.03;5032717;28;20425;-64
2021/03/08 01:41:33;;;;;;;19.55;11.88;;;;;;;-139.48;100.00;61774.03;5032995;28;20052;-64
2021/03/08 01:44:16;;;;;;;18.58;11.35;;;;;;;-139.48;100.00;61774.03;5017751;28;20052;-64
2021/03/08 01:47:01;;;;;;;19.13;12.27;;;;;;;-139.48;100.00;61774.03;5032709;28;20048;-63
2021/03/08 01:49:45;;;;;;;20.80;12.30;;;;;;;-139.48;100.00;61774.03;5032493;28;20080;-64
2021/03/08 01:52:29;;;;;;;21.10;13.02;;;;;;;-139.48;100.00;61774.03;5032933;28;20057;-64
2021/03/08 01:55:13;;;;;;;17.58;11.75;;;;;;;-139.48;100.00;61774.03;5003797;28;20056;-64
2021/03/08 01:57:58;;;;;;;21.60;11.93;;;;;;;-139.48;100.00;61774.03;5032718;28;20052;-62
2021/03/08 02:00:42;;;;;;;21.15;12.93;;;;;;;-139.48;100.00;61774.03;5032763;28;20114;-65
2021/03/08 02:03:27;;;;;;;19.58;12.13;;;;;;;-139.48;100.00;61774.03;5017495;28;20103;-64
2021/03/08 02:06:11;;;;;;;20.00;12.80;;;;;;;-139.48;100.00;61774.03;5017801;28;20099;-64
2021/03/08 02:08:55;;;;;;;21.38;13.27;;;;;;;-139.48;100.00;61774.03;5003959;28;20052;-64
2021/03/08 02:11:40;;;;;;;20.65;13.13;;;;;;;-139.48;100.00;61774.03;5035598;28;20052;-64
2021/03/08 02:14:49;;;;;;;19.45;12.32;;;;;;;-139.48;100.00;61774.03;5036278;28;20045;-63
2021/03/08 02:17:41;;;;;;;21.95;13.07;;;;;;;-139.48;100.00;61774.03;5021401;28;20053;-65
2021/03/08 02:20:31;;;;;;;20.95;12.88;;;;;;;-139.48;100.00;61774.03;5036176;28;20103;-64
2021/03/08 02:23:21;;;;;;;20.98;12.50;;;;;;;-139.48;100.00;61774.03;5021040;28;20075;-64
2021/03/08 02:26:25;;;;;;;20.15;11.95;;;;;;;-139.48;100.00;61774.03;5036040;28;20099;-64
2021/03/08 02:29:47;;;;;;;22.88;11.77;;;;;;;-139.48;100.00;61774.03;5020826;28;20513;-64
2021/03/08 02:32:45;;;;;;;19.38;12.07;;;;;;;-139.48;100.00;61774.03;5035908;28;20052;-64
2021/03/08 02:35:29;;;;;;;18.25;11.80;;;;;;;-139.48;100.00;61774.03;5020759;28;20457;-63
2021/03/08 02:38:19;;;;;;;18.83;12.32;;;;;;;-139.48;100.00;61774.03;5035763;28;20056;-64
2021/03/08 02:41:06;;;;;;;19.83;12.95;;;;;;;-139.48;100.00;61774.03;5020563;28;20047;-64
2021/03/08 02:43:54;;;;;;;20.40;12.15;;;;;;;-139.48;100.00;61774.03;5035511;28;20195;-64
2021/03/08 02:46:41;;;;;;;18.73;12.07;;;;;;;-139.48;100.00;61774.03;5020710;28;20053;-64
2021/03/08 02:49:28;;;;;;;21.88;12.50;;;;;;;-139.48;100.00;61774.03;5117552;23;20061;-68
2021/03/08 02:52:14;;;;;;;20.95;12.43;;;;;;;-139.48;100.00;61774.03;5014590;28;20082;-68
2021/03/08 02:55:00;;;;;;;23.17;13.02;;;;;;;-139.48;100.00;61774.03;5014546;28;20131;-67
2021/03/08 02:57:44;;;;;;;19.42;12.38;;;;;;;-139.48;100.00;61774.03;5015433;28;20529;-70
2021/03/08 03:00:29;;;;;;;19.48;12.43;;;;;;;-139.48;100.00;61774.03;4994875;28;20506;-70
2021/03/08 03:03:14;;;;;;;20.77;13.15;;;;;;;-139.48;100.00;61774.03;4995136;28;20126;-69
2021/03/08 03:05:59;;;;;;;18.38;12.25;;;;;;;-139.48;100.00;61774.03;4995028;28;20528;-70
2021/03/08 03:08:44;;;;;;;21.75;13.15;;;;;;;-139.48;100.00;61774.03;4994818;28;20093;-70
2021/03/08 03:11:28;;;;;;;20.05;11.88;;;;;;;-139.48;100.00;61774.03;4994666;28;20053;-68
2021/03/08 03:14:13;;;;;;;19.30;11.55;;;;;;;-139.48;100.00;61774.03;4981294;28;20096;-70
2021/03/08 03:17:02;;;;;;;19.15;12.13;;;;;;;-139.48;100.00;61774.03;4995532;28;20080;-70
2021/03/08 03:19:49;;;;;;;18.67;11.82;;;;;;;-139.48;100.00;61774.03;4995696;28;20068;-70
2021/03/08 03:22:34;;;;;;;21.33;12.30;;;;;;;-139.48;100.00;61774.03;4993657;28;20226;-70
2021/03/08 03:25:22;;;;;;;21.02;12.80;;;;;;;-139.48;100.00;61774.03;4994347;28;20053;-70
2021/03/08 03:28:07;;;;;;;22.08;12.43;;;;;;;-139.48;100.00;61774.03;4980564;28;20053;-70
2021/03/08 03:30:51;;;;;;;17.30;11.68;;;;;;;-139.48;100.00;61774.03;4994434;28;20125;-67
2021/03/08 03:33:35;;;;;;;21.33;11.95;;;;;;;-139.48;100.00;61774.03;4994186;28;20105;-69
2021/03/08 03:36:20;;;;;;;20.30;12.77;;;;;;;-139.48;100.00;61774.03;4994457;28;20052;-69
2021/03/08 03:39:07;;;;;;;19.17;12.38;;;;;;;-139.48;100.00;61774.03;4994052;28;20515;-69
2021/03/08 03:41:51;;;;;;;20.02;12.13;;;;;;;-139.48;100.00;61774.03;4994239;28;20519;-69
2021/03/08 03:44:35;;;;;;;19.40;12.40;;;;;;;-139.48;100.00;61774.03;4993875;28;20057;-69
2021/03/08 03:47:20;;;;;;;25.02;12.88;;;;;;;-139.48;100.00;61774.03;4995246;28;20053;-69
2021/03/08 03:50:10;;;;;;;21.35;12.88;;;;;;;-139.48;100.00;61774.03;4994710;28;20057;-69
2021/03/08 03:52:54;;;;;;;19.65;11.90;;;;;;;-139.48;100.00;61774.03;4994805;28;20092;-69
2021/03/08 03:55:39;;;;;;;20.70;13.07;;;;;;;-139.48;100.00;61774.03;4994059;28;20049;-69
2021/03/08 03:58:29;;;;;;;19.05;11.88;;;;;;;-139.48;100.00;61774.03;4993661;28;20127;-69
2021/03/08 04:01:15;;;;;;;22.17;12.32;;;;;;;-139.48;100.00;61774.03;4993909;28;20106;-69
2021/03/08 04:04:21;;;;;;;21.40;12.85;;;;;;;-139.48;100.00;61774.03;4993597;28;20116;-69
2021/03/08 04:07:07;;;;;;;26.35;12.82;;;;;;;-139.48;100.00;61774.03;4993547;28;20049;-68
2021/03/08 04:09:52;;;;;;;19.77;12.43;;;;;;;-139.48;100.00;61774.03;4993479;28;20471;-69
2021/03/08 04:12:38;;;;;;;21.63;13.25;;;;;;;-139.48;100.00;61774.03;4994437;28;20053;-69
2021/03/08 04:15:24;;;;;;;22.85;13.20;;;;;;;-139.48;100.00;61774.03;4994725;28;20514;-66
2021/03/08 04:18:10;;;;;;;22.83;13.48;;;;;;;-139.48;100.00;61774.03;4993316;28;20049;-70
2021/03/08 04:20:57;;;;;;;21.00;13.30;;;;;;;-139.48;100.00;61774.03;4994561;28;20129;-69
2021/03/08 04:23:42;;;;;;;23.98;13.18;;;;;;;-139.48;100.00;61774.03;4993493;28;20105;-69
2021/03/08 04:26:26;;;;;;;20.58;13.27;;;;;;;-139.48;100.00;61774.03;4994801;28;20065;-69
2021/03/08 04:29:11;;;;;;;25.17;13.63;;;;;;;-139.48;100.00;61774.03;4994141;28;20206;-69
2021/03/08 04:31:55;;;;;;;20.33;13.20;;;;;;;-139.48;100.00;61774.03;4994390;28;20088;-69
2021/03/08 04:34:40;;;;;;;20.42;13.60;;;;;;;-139.48;100.00;61774.03;4992978;28;20408;-68
2021/03/08 04:37:24;;;;;;;20.58;13.38;;;;;;;-139.48;100.00;61774.03;4993376;28;20419;-69
2021/03/08 04:40:12;;;;;;;23.42;13.85;;;;;;;-139.48;100.00;61774.03;4992944;28;20053;-69
2021/03/08 04:42:57;;;;;;;21.60;13.77;;;;;;;-139.48;100.00;61774.03;4979263;28;20522;-69
2021/03/08 04:45:41;;;;;;;23.00;13.25;;;;;;;-139.48;100.00;61774.03;4994242;28;20054;-69
2021/03/08 04:48:26;;;;;;;21.88;13.88;;;;;;;-139.48;100.00;61774.03;4994020;28;20097;-70
2021/03/08 04:51:10;;;;;;;20.25;12.95;;;;;;;-139.48;100.00;61774.03;4993185;28;20049;-69
2021/03/08 04:53:54;;;;;;;25.95;14.32;;;;;;;-139.48;100.00;61774.03;4979394;28;20065;-69
2021/03/08 04:56:38;;;;;;;21.70;14.05;;;;;;;-139.48;100.00;61774.03;4993420;28;20129;-69
2021/03/08 04:59:23;;;;;;;22.13;14.05;;;;;;;-139.48;100.00;61774.03;4993007;28;20092;-69
2021/03/08 05:02:09;;;;;;;22.15;14.02;;;;;;;-139.48;100.00;61774.03;4993746;28;20052;-69
2021/03/08 05:04:54;;;;;;;25.17;14.48;;;;;;;-139.48;100.00;61774.03;4993047;28;20049;-69
2021/03/08 05:07:41;;;;;;;27.20;13.90;;;;;;;-139.48;100.00;61774.03;4992761;28;20506;-69
2021/03/08 05:10:27;;;;;;;22.70;14.43;;;;;;;-139.48;100.00;61774.03;4992665;28;20120;-69
2021/03/08 05:13:12;;;;;;;25.50;13.95;;;;;;;-139.48;100.00;61774.03;4993039;28;20069;-69
2021/03/08 05:16:00;;;;;;;26.77;15.07;;;;;;;-139.48;100.00;61774.03;4993842;28;20415;-69
2021/03/08 05:18:45;;;;;;;27.40;15.35;;;;;;;-139.48;100.00;61774.03;4992713;28;20061;-69
2021/03/08 05:21:32;;;;;;;25.33;15.48;;;;;;;-139.48;100.00;61774.03;4992848;28;20125;-69
2021/03/08 05:24:16;;;;;;;24.08;15.50;;;;;;;-139.48;100.00;61774.03;4978855;28;20049;-69
2021/03/08 05:27:08;;;;;;;26.10;15.20;;;;;;;-139.48;100.00;61774.03;4992809;28;20523;-69
2021/03/08 05:29:54;;;;;;;24.45;14.65;;;;;;;-139.48;100.00;61774.03;4993630;28;20045;-69
2021/03/08 05:32:43;;;;;;;22.33;14.32;;;;;;;-139.48;100.00;61774.03;4993014;28;20514;-69
2021/03/08 05:35:27;;;;;;;20.80;13.68;;;;;;;-139.48;100.00;61774.03;4978935;28;20088;-69
2021/03/08 05:38:12;;;;;;;23.70;14.05;;;;;;;-139.48;100.00;61774.03;4992398;28;20117;-69
2021/03/08 05:41:05;;;;;;;25.80;13.95;;;;;;;-139.48;100.00;61774.03;4992468;28;20049;-69
2021/03/08 05:43:52;;;;;;;23.80;14.43;;;;;;;-139.48;100.00;61774.03;4992538;28;20049;-69
2021/03/08 05:46:41;;;;;;;24.48;14.48;;;;;;;-139.48;100.00;61774.03;4995279;28;20415;-69
2021/03/08 05:49:49;;;;;;;28.83;16.48;;;;;;;-139.48;100.00;61774.03;4995971;28;20049;-69
2021/03/08 05:53:01;;;;;;;24.15;14.98;;;;;;;-139.48;100.00;61774.03;4997014;28;20093;-69
2021/03/08 05:56:07;;;;;;;25.30;15.45;;;;;;;-139.48;100.00;61774.03;4996182;28;20464;-69
2021/03/08 05:59:27;;;;;;;28.50;16.17;;;;;;;-139.48;100.00;61774.03;4996291;28;20407;-69
2021/03/08 06:02:29;;;;;;;27.50;15.90;;;;;;;-139.48;100.00;61774.03;4996860;28;20178;-69
2021/03/08 06:05:56;;;;;;;26.40;15.88;;;;;;;-139.48;100.00;61774.03;4996810;28;20049;-68
2021/03/08 06:09:10;;;;;;;26.33;15.35;;;;;;;-139.48;100.00;61774.03;4996663;28;20053;-69
2021/03/08 06:12:05;;;;;;;30.20;16.33;;;;;;;-139.48;100.00;61774.03;4995741;28;20638;-68
2021/03/08 06:14:53;;;;;;;24.15;14.45;;;;;;;-139.48;100.00;61774.03;4996626;28;20275;-69
2021/03/08 06:17:38;;;;;;;25.40;15.48;;;;;;;-139.48;100.00;61774.03;4995693;28;20077;-70
2021/03/08 06:20:22;;;;;;;27.00;15.60;;;;;;;-139.48;100.00;61774.03;4995516;28;20129;-69
2021/03/08 06:23:07;;;;;;;28.20;15.57;;;;;;;-139.48;100.00;61774.03;4995687;28;20101;-68
2021/03/08 06:25:53;;;;;;;33.15;16.48;;;;;;;-139.48;100.00;61774.03;4995680;28;20515;-69
2021/03/08 06:28:37;;;;;;;26.42;15.80;;;;;;;-139.48;100.00;61774.03;4996563;28;20052;-68
2021/03/08 06:31:22;;;;;;;27.50;15.35;;;;;;;-139.48;100.00;61774.03;4996363;28;20142;-69
2021/03/08 06:34:06;;;;;;;21.77;14.15;;;;;;;-139.48;100.00;61774.03;4996548;28;20065;-69
2021/03/08 06:36:52;;;;;;;24.98;15.70;;;;;;;-139.48;100.00;61774.03;4995341;28;20053;-68
2021/03/08 06:39:44;;;;;;;25.23;15.77;;;;;;;-139.48;100.00;61774.03;4995418;28;20100;-69
2021/03/08 06:42:28;;;;;;;25.75;15.32;;;;;;;-139.48;100.00;61774.03;4995126;28;20088;-69
2021/03/08 06:45:13;;;;;;;34.83;17.45;;;;;;;-139.48;100.00;61774.03;4996094;28;20088;-69
2021/03/08 06:47:57;;;;;;;29.80;16.70;;;;;;;-139.48;100.00;61774.03;4996311;28;20088;-69
2021/03/08 06:50:41;;;;;;;29.88;17.05;;;;;;;-139.48;100.00;61774.03;4996194;28;20069;-69
2021/03/08 06:53:31;;;;;;;26.77;15.45;;;;;;;-139.48;100.00;61774.03;4996003;28;20148;-69
2021/03/08 06:56:20;;;;;;;26.98;16.25;;;;;;;-139.48;100.00;61774.03;4995854;28;20590;-69
2021/03/08 06:59:15;;;;;;;27.27;15.68;;;;;;;-139.48;100.00;61774.03;4995062;28;20049;-69
2021/03/08 07:01:59;;;;;;;28.45;16.27;;;;;;;-139.48;100.00;61774.03;4981852;28;20064;-68
2021/03/08 07:04:46;;;;;;;26.63;16.65;;;;;;;-139.48;100.00;61774.03;4994725;28;20420;-69
2021/03/08 07:07:52;;;;;;;25.45;16.77;;;;;;;-139.48;100.00;61774.03;4995684;28;20045;-69
2021/03/08 07:10:41;;;;;;;29.20;17.17;;;;;;;-139.48;100.00;61774.03;4994562;28;20124;-69
2021/03/08 07:13:31;;;;;;;34.25;17.88;;;;;;;-139.48;100.00;61774.03;4995641;28;20049;-69
2021/03/08 07:16:15;;;;;;;28.00;17.15;;;;;;;-139.48;100.00;61774.03;4981026;28;20053;-69
2021/03/08 07:19:06;;;;;;;29.38;17.13;;;;;;;-139.48;100.00;61774.03;4995444;28;20081;-68
2021/03/08 07:21:51;;;;;;;28.13;17.95;;;;;;;-139.48;100.00;61774.03;4980996;28;20084;-69
2021/03/08 07:24:35;;;;;;;30.35;17.83;;;;;;;-139.48;100.00;61774.03;4994562;28;20451;-69
2021/03/08 07:27:19;;;;;;;32.92;18.75;;;;;;;-139.48;100.00;61774.03;4995327;28;20124;-69
2021/03/08 07:30:06;;;;;;;33.10;18.52;;;;;;;-139.48;100.00;61774.03;4995340;28;20363;-69
2021/03/08 07:32:58;;;;;;;28.10;18.17;;;;;;;-139.48;100.00;61774.03;4980458;28;20141;-69
2021/03/08 07:35:43;;;;;;;32.33;17.42;;;;;;;-139.48;100.00;61774.03;4995418;28;20464;-69
2021/03/08 07:38:30;;;;;;;29.88;17.70;;;;;;;-139.48;100.00;61774.03;4995039;28;20053;-69
2021/03/08 07:41:22;;;;;;;29.20;17.60;;;;;;;-139.48;100.00;61774.03;4995335;28;20150;-69
2021/03/08 07:44:07;;;;;;;28.35;16.98;;;;;;;-139.48;100.00;61774.03;4994995;28;20072;-69
2021/03/08 07:46:54;;;;;;;29.58;17.10;;;;;;;-139.48;100.00;61774.03;4994215;28;20139;-69
2021/03/08 07:49:39;;;;;;;32.95;17.33;;;;;;;-139.48;100.00;61774.03;4994664;28;20514;-69
2021/03/08 07:52:23;;;;;;;31.65;18.08;;;;;;;-139.48;100.00;61774.03;4994793;28;20111;-69
2021/03/08 07:55:08;;;;;;;26.58;16.92;;;;;;;-139.48;100.00;61774.03;4995007;28;20514;-69
2021/03/08 07:57:52;;;;;;;24.42;15.75;;;;;;;-139.48;100.00;61774.03;4994948;28;20084;-69
2021/03/08 08:00:36;;;;;;;30.88;16.67;;;;;;;-139.48;100.00;61774.03;4994887;28;20427;-69
2021/03/08 08:03:20;;;;;;;27.35;16.55;;;;;;;-139.48;100.00;61774.03;4980470;28;20475;-69
2021/03/08 08:06:07;;;;;;;24.35;15.13;;;;;;;-139.48;100.00;61774.03;4994903;28;20507;-69
2021/03/08 08:08:53;;;;;;;25.77;14.70;;;;;;;-139.48;100.00;61774.03;4993245;28;20510;-69
2021/03/08 08:11:39;;;;;;;23.30;14.10;;;;;;;-139.48;100.00;61774.03;4993757;28;20132;-69
2021/03/08 08:14:23;;;;;;;22.17;14.43;;;;;;;-139.48;100.00;61774.03;4994754;28;20126;-69
2021/03/08 08:17:08;;;;;;;25.83;15.85;;;;;;;-139.48;100.00;61774.03;4993414;28;20415;-70
2021/03/08 08:19:53;;;;;;;25.65;15.05;;;;;;;-139.48;100.00;61774.03;4993578;28;20101;-70
2021/03/08 08:22:43;;;;;;;24.40;15.63;;;;;;;-139.48;100.00;61774.03;4993462;28;20105;-69
2021/03/08 08:25:28;;;;;;;22.88;14.65;;;;;;;-139.48;100.00;61774.03;4993200;28;20042;-69
2021/03/08 08:28:17;;;;;;;31.48;16.83;;;;;;;-139.48;100.00;61774.03;4979691;28;20076;-69
2021/03/08 08:31:01;;;;;;;25.02;15.82;;;;;;;-139.48;100.00;61774.03;4993689;28;20150;-69
2021/03/08 08:33:46;;;;;;;23.65;15.38;;;;;;;-139.48;100.00;61774.03;4994091;28;20506;-69
2021/03/08 08:36:30;;;;;;;27.48;17.35;;;;;;;-139.48;100.00;61774.03;4993386;28;20049;-69
2021/03/08 08:39:15;;;;;;;43.08;23.83;;;;;;;-139.48;100.00;61774.03;4993929;28;20526;-69
2021/03/08 08:42:18;;;;;;;54.20;30.25;;;;;;;-139.48;100.00;61774.03;4993296;28;20053;-69
2021/03/08 08:45:26;;;;;;;18.60;12.20;;;;;;;-139.48;100.00;61774.03;4994008;28;20045;-69
2021/03/08 08:48:10;;;;;;;30.98;16.85;;;;;;;-139.48;100.00;61774.03;4993081;28;20045;-68
2021/03/08 08:50:56;;;;;;;27.50;17.88;;;;;;;-139.48;100.00;61774.03;5025428;23;20056;-69
2021/03/08 08:53:42;;;;;;;35.53;21.05;;;;;;;-139.48;100.00;61774.03;5018663;28;20183;-69
2021/03/08 08:56:48;;;;;;;24.58;16.73;;;;;;;-139.48;100.00;61774.03;5018609;28;20068;-69
2021/03/08 08:59:34;;;;;;;22.23;13.85;;;;;;;-139.48;100.00;61774.03;5033049;28;20096;-69
2021/03/08 09:02:22;;;;;;;24.27;14.90;;;;;;;-139.48;100.00;61774.03;5018085;28;20052;-69
2021/03/08 09:05:28;;;;;;;37.78;19.23;;;;;;;-139.48;100.00;61774.03;5018062;28;20052;-69
2021/03/08 09:08:21;;;;;;;22.13;13.27;;;;;;;-139.48;100.00;61774.03;5033331;28;20107;-69
2021/03/08 09:11:45;;;;;;;23.90;13.50;;;;;;;-139.48;100.00;61774.03;5033225;28;20060;-69
2021/03/08 09:14:37;;;;;;;19.02;12.68;;;;;;;-139.48;100.00;61774.03;5018366;28;20044;-69
2021/03/08 09:17:30;;;;;;;16.80;11.00;;;;;;;-139.48;100.00;61774.03;5032926;28;20056;-69
2021/03/08 09:20:14;;;;;;;28.25;14.25;;;;;;;-139.48;100.00;61774.03;5018929;28;20199;-69
2021/03/08 09:23:03;;;;;;;19.20;12.65;;;;;;;-139.48;100.00;61774.03;5021881;28;20064;-69
2021/03/08 09:25:55;;;;;;;17.70;11.38;;;;;;;-139.48;100.00;61774.03;5037195;28;20056;-69
2021/03/08 09:28:48;;;;;;;17.35;11.23;;;;;;;-139.48;100.00;61774.03;5022138;28;20429;-69
2021/03/08 09:31:32;;;;;;;18.90;11.32;;;;;;;-139.48;100.00;61774.03;5037300;28;20055;-69
2021/03/08 09:34:16;;;;;;;27.58;14.82;;;;;;;-139.48;100.00;61774.03;5036767;28;20047;-69
2021/03/08 09:37:02;;;;;;;18.88;10.73;;;;;;;-139.48;100.00;61774.03;5037127;28;20048;-70
2021/03/08 09:39:48;;;;;;;26.60;14.65;;;;;;;-139.48;100.00;61774.03;5021907;28;20049;-70
2021/03/08 09:42:39;;;;;;;18.98;11.98;;;;;;;-139.48;100.00;61774.03;5021741;28;20052;-69
2021/03/08 09:45:30;;;;;;;18.92;10.55;;;;;;;-139.48;100.00;61774.03;5036497;28;20047;-70
2021/03/08 09:48:14;;;;;;;12.00;9.60;;;;;;;-139.48;100.00;61774.03;5036533;28;20052;-68
2021/03/08 09:51:12;;;;;;;20.88;13.10;;;;;;;-139.48;100.00;61774.03;5036341;28;20052;-70
2021/03/08 09:53:58;;;;;;;12.98;9.50;;;;;;;-139.48;100.00;61774.03;5021478;28;20532;-70
2021/03/08 09:56:42;;;;;;;16.35;12.15;;;;;;;-139.48;100.00;61774.03;5021705;28;20092;-69
2021/03/08 09:59:26;;;;;;;11.73;10.27;;;;;;;-139.48;100.00;61774.03;5021402;28;20057;-70
2021/03/08 10:02:16;;;;;;;12.57;11.27;;;;;;;-139.48;100.00;61774.03;5036247;28;20561;-70
2021/03/08 10:05:01;;;;;;;14.18;9.20;;;;;;;-139.48;100.00;61774.03;5036504;28;20151;-69
2021/03/08 10:07:55;;;;;;;11.85;9.80;;;;;;;-139.48;100.00;61774.03;5021095;28;20055;-70
2021/03/08 10:10:40;;;;;;;;;;;;;;;-139.48;100.00;61774.03;5036505;28;20124;-70
2021/03/08 10:13:26;;;;;;;10.38;8.85;;;;;;;-139.48;100.00;61774.03;5036178;28;19920;-69
2021/03/08 10:16:09;;;;;;;11.10;8.77;;;;;;;-139.48;100.00;61774.03;5021188;28;20044;-70
2021/03/08 10:18:54;;;;;;;13.45;11.35;;;;;;;-139.48;100.00;61774.03;5021025;28;20137;-70
2021/03/08 10:21:41;;;;;;;10.27;8.90;;;;;;;-139.48;100.00;61774.03;5007101;28;20517;-69
2021/03/08 10:24:40;;;;;;;11.18;9.68;;;;;;;-139.48;100.00;61774.03;5035704;28;20064;-70
2021/03/08 10:27:25;;;;;;;12.18;10.32;;;;;;;-139.48;100.00;61774.03;5006771;28;20100;-70
2021/03/08 10:30:16;;;;;;;10.35;8.60;;;;;;;-139.48;100.00;61774.03;5035662;28;20564;-69
2021/03/08 10:33:16;;;;;;;8.43;7.53;;;;;;;-139.48;100.00;61774.03;5035609;28;20084;-69
2021/03/08 10:36:00;;;;;;;10.55;9.13;;;;;;;-139.48;100.00;61774.03;5020597;28;20048;-69
2021/03/08 10:38:45;;;;;;;11.10;7.43;;;;;;;-139.48;100.00;61774.03;5020387;28;20413;-69
2021/03/08 10:41:30;;;;;;;10.02;8.57;;;;;;;-139.48;100.00;61774.03;5020554;28;20558;-69
2021/03/08 10:44:21;;;;;;;11.15;8.00;;;;;;;-139.48;100.00;61774.03;5035347;28;20124;-69
2021/03/08 10:47:15;;;;;;;14.95;10.30;;;;;;;-139.48;100.00;61774.03;5035586;28;20119;-69
2021/03/08 10:50:00;;;;;;;9.05;7.78;;;;;;;-139.48;100.00;61774.03;5035242;28;20053;-69
2021/03/08 10:53:03;;;;;;;11.75;8.50;;;;;;;-139.48;100.00;61774.03;5020472;28;20509;-70
2021/03/08 10:55:48;;;;;;;12.77;9.38;;;;;;;-139.48;100.00;61774.03;5020493;28;20052;-69
2021/03/08 10:58:35;;;;;;;12.98;8.48;;;;;;;-139.48;100.00;61774.03;5020292;28;20056;-69
2021/03/08 11:01:20;;;;;;;9.25;7.90;;;;;;;-139.48;100.00;61774.03;5020427;28;20099;-69
2021/03/08 11:04:04;;;;;;;13.18;9.82;;;;;;;-139.48;100.00;61774.03;5035332;28;20075;-70
2021/03/08 11:06:48;;;;;;;11.65;9.20;;;;;;;-139.48;100.00;61774.03;5020113;28;20051;-70
2021/03/08 11:09:34;;;;;;;9.02;6.78;;;;;;;-139.48;100.00;61774.03;5034906;28;20048;-70
2021/03/08 11:12:23;;;;;;;10.80;8.10;;;;;;;-139.48;100.00;61774.03;5019952;28;20090;-68
2021/03/08 11:15:08;;;;;;;7.90;7.05;;;;;;;-139.48;100.00;61774.03;5019901;28;20509;-68
2021/03/08 11:17:52;;;;;;;19.52;15.15;;;;;;;-139.48;100.00;61774.03;5020076;28;20418;-70
2021/03/08 11:20:36;;;;;;;13.27;10.82;;;;;;;-139.48;100.00;61774.03;5034728;28;20217;-69
2021/03/08 11:23:25;;;;;;;8.77;7.97;;;;;;;-139.48;100.00;61774.03;5020042;28;20099;-69
2021/03/08 11:26:09;;;;;;;11.75;10.40;;;;;;;-139.48;100.00;61774.03;5034975;28;20198;-70
2021/03/08 11:28:53;;;;;;;19.75;15.13;;;;;;;-139.48;100.00;61774.03;5034587;28;20055;-70
2021/03/08 11:31:52;;;;;;;14.15;11.77;;;;;;;-139.48;100.00;61774.03;5034915;28;20053;-69
2021/03/08 11:34:38;;;;;;;9.45;8.52;;;;;;;-139.48;100.00;61774.03;5034798;28;20422;-70
2021/03/08 11:37:25;;;;;;;22.15;15.48;;;;;;;-139.48;100.00;61774.03;5019546;28;20048;-68
2021/03/08 11:40:10;;;;;;;10.48;9.48;;;;;;;-139.48;100.00;61774.03;5034649;28;20052;-70
2021/03/08 11:42:55;;;;;;;13.65;10.55;;;;;;;-139.48;100.00;61774.03;5033768;28;20110;-69
2021/03/08 11:45:41;;;;;;;9.10;8.00;;;;;;;-139.48;100.00;61774.03;5019410;28;20052;-70
2021/03/08 11:48:25;;;;;;;23.17;18.05;;;;;;;-139.48;100.00;61774.03;5019563;28;20048;-70
2021/03/08 11:51:09;;;;;;;11.25;8.45;;;;;;;-139.48;100.00;61774.03;5033954;28;20418;-70
2021/03/08 11:53:54;;;;;;;9.00;7.32;;;;;;;-139.48;100.00;61774.03;5019295;28;20107;-70
2021/03/08 11:56:38;;;;;;;9.88;7.15;;;;;;;-139.48;100.00;61774.03;5034095;28;20048;-70
2021/03/08 11:59:22;;;;;;;11.30;5.90;;;;;;;-139.48;100.00;61774.03;5019322;28;20133;-70
2021/03/08 12:02:06;;;;;;;13.65;9.45;;;;;;;-139.48;100.00;61774.03;4991622;28;20103;-70
2021/03/08 12:04:50;;;;;;;17.83;14.25;;;;;;;-139.48;100.00;61774.03;5018898;28;20564;-70
2021/03/08 12:07:35;;;;;;;9.93;7.47;;;;;;;-139.48;100.00;61774.03;5005080;28;20056;-70
2021/03/08 12:10:20;;;;;;;8.82;7.07;;;;;;;-139.48;100.00;61774.03;5018999;28;20473;-70
2021/03/08 12:13:03;;;;;;;10.35;8.05;;;;;;;-139.48;100.00;61774.03;5018823;28;20422;-70
2021/03/08 12:15:49;;;;;;;9.50;6.80;;;;;;;-139.48;100.00;61774.03;5004933;28;20048;-70
2021/03/08 12:18:33;;;;;;;7.18;6.38;;;;;;;-139.48;100.00;61774.03;5033788;28;20048;-68
2021/03/08 12:21:19;;;;;;;7.57;6.53;;;;;;;-139.48;100.00;61774.03;5033934;28;20048;-70
2021/03/08 12:24:03;;;;;;;13.23;8.27;;;;;;;-139.48;100.00;61774.03;5004987;28;20045;-69
2021/03/08 12:26:47;;;;;;;15.18;12.45;;;;;;;-139.48;100.00;61774.03;5033536;28;20425;-70